Time;durP1;ratioP1;P1;durP2;ratioP2;P2;SDS_P1;SDS_P2;PMS_P1;PMS_P2;Temp;Humidity;BMP_temperature;BMP_pressure;BME280_temperature;BME280_humidity;BME280_pressure;Samples;Min_cycle;Max_cycle;Signal;HPM_P1;HPM_P2
2022/05/17 00:00:19;;;;;;;585.22;528.83;;;;;;;21.80;32.25;101211.72;684524;28;47896;-68
2022/05/17 00:00:41;;;;;;;583.63;527.13;;;;;;;21.82;32.31;101212.34;683958;28;46318;-68
2022/05/17 00:01:03;;;;;;;575.60;519.40;;;;;;;21.82;32.43;101209.59;686013;28;22440;-68
2022/05/17 00:01:26;;;;;;;575.45;519.25;;;;;;;21.83;32.46;101221.41;683109;28;69411;-68
2022/05/17 00:01:47;;;;;;;575.03;518.65;;;;;;;21.78;32.41;101209.22;684124;28;43712;-68
2022/05/17 00:02:09;;;;;;;574.10;517.85;;;;;;;21.80;32.47;101213.63;684565;28;45270;-68
2022/05/17 00:02:30;;;;;;;577.75;521.45;;;;;;;21.81;32.46;101216.16;685011;28;23488;-68
2022/05/17 00:02:51;;;;;;;573.13;516.97;;;;;;;21.80;32.41;101214.47;685198;28;23429;-69
2022/05/17 00:03:13;;;;;;;579.20;522.85;;;;;;;21.82;32.54;101219.72;685272;28;22466;-69
2022/05/17 00:03:39;;;;;;;577.75;521.38;;;;;;;21.81;32.37;101216.16;684194;28;59216;-68
2022/05/17 00:04:01;;;;;;;582.38;526.00;;;;;;;21.82;32.42;101222.47;684198;28;46380;-68
2022/05/17 00:04:23;;;;;;;578.65;522.42;;;;;;;21.78;32.34;101216.63;685670;28;22388;-68
2022/05/17 00:04:44;;;;;;;576.67;520.30;;;;;;;21.80;32.34;101217.22;684241;28;45244;-69
2022/05/17 00:05:06;;;;;;;582.38;525.92;;;;;;;21.80;32.39;101219.97;685137;28;22390;-68
2022/05/17 00:05:27;;;;;;;589.10;532.60;;;;;;;21.76;32.23;101213.28;684585;28;47245;-68
2022/05/17 00:05:49;;;;;;;580.58;524.17;;;;;;;21.77;32.49;101213.06;684188;28;46315;-68
2022/05/17 00:06:11;;;;;;;581.60;525.17;;;;;;;21.80;32.50;101219.13;685723;28;23415;-68
2022/05/17 00:06:33;;;;;;;578.90;522.45;;;;;;;21.76;32.56;101216.03;683973;28;44395;-68
2022/05/17 00:06:54;;;;;;;576.78;520.42;;;;;;;21.79;32.21;101221.06;684451;28;46720;-68
2022/05/17 00:07:15;;;;;;;576.17;519.88;;;;;;;21.79;32.38;101223.81;684761;28;21200;-68
2022/05/17 00:07:38;;;;;;;572.40;516.25;;;;;;;21.78;32.46;101217.44;684718;28;46317;-68
2022/05/17 00:07:59;;;;;;;579.65;523.35;;;;;;;21.80;32.47;101219.13;684836;28;44403;-68
2022/05/17 00:08:20;;;;;;;577.90;521.63;;;;;;;21.77;32.33;101223.19;685716;28;22420;-68
2022/05/17 00:08:41;;;;;;;582.13;525.72;;;;;;;21.77;32.36;101215.81;685321;28;21450;-68
2022/05/17 00:09:04;;;;;;;587.92;531.42;;;;;;;21.74;32.62;101212.66;685537;28;21532;-68
2022/05/17 00:09:28;;;;;;;589.35;532.83;;;;;;;21.77;32.43;101215.81;685401;28;14883;-68
2022/05/17 00:09:49;;;;;;;587.00;530.17;;;;;;;21.78;32.38;101213.88;683614;28;67475;-68
2022/05/17 00:10:11;;;;;;;578.20;521.90;;;;;;;21.77;32.33;101223.19;685327;28;22322;-68
2022/05/17 00:10:32;;;;;;;578.08;521.88;;;;;;;21.75;32.50;101223.44;684400;28;46279;-69
2022/05/17 00:10:54;;;;;;;584.47;528.05;;;;;;;21.75;32.57;101217.09;685047;28;22470;-68
2022/05/17 00:11:15;;;;;;;585.17;528.72;;;;;;;21.73;32.33;101216.53;684366;28;45324;-68
2022/05/17 00:11:37;;;;;;;584.78;528.08;;;;;;;21.72;32.55;101217.59;682187;28;46407;-69
2022/05/17 00:11:59;;;;;;;583.15;526.75;;;;;;;21.71;32.53;101219.50;685616;28;22405;-68
2022/05/17 00:12:20;;;;;;;590.40;533.90;;;;;;;21.71;32.54;101224.19;684060;28;45335;-69
2022/05/17 00:12:41;;;;;;;579.67;523.38;;;;;;;21.70;32.65;101217.00;685052;28;22392;-68
2022/05/17 00:13:03;;;;;;;574.65;518.53;;;;;;;21.70;32.49;101219.75;685156;28;23754;-68
2022/05/17 00:13:26;;;;;;;571.42;515.33;;;;;;;21.68;32.47;101217.25;685914;28;1866;-68
2022/05/17 00:13:47;;;;;;;582.88;526.58;;;;;;;21.65;32.51;101208.66;684085;28;68456;-68
2022/05/17 00:14:08;;;;;;;580.13;523.78;;;;;;;21.67;32.56;101210.06;685428;28;24189;-68
2022/05/17 00:14:29;;;;;;;578.58;522.28;;;;;;;21.66;32.50;101213.91;685253;28;22378;-68
2022/05/17 00:14:52;;;;;;;576.10;519.75;;;;;;;21.64;32.88;101213.28;685560;28;21506;-68
2022/05/17 00:15:13;;;;;;;575.10;518.88;;;;;;;21.62;32.63;101209.13;683928;28;69393;-69
2022/05/17 00:15:35;;;;;;;578.95;522.55;;;;;;;21.65;32.71;101205.91;684931;28;23466;-68
2022/05/17 00:15:56;;;;;;;580.58;524.25;;;;;;;21.66;32.76;101207.53;685002;28;46289;-68
2022/05/17 00:16:18;;;;;;;576.00;519.70;;;;;;;21.66;32.64;101211.16;685511;28;21300;-68
2022/05/17 00:16:40;;;;;;;582.03;525.45;;;;;;;21.66;32.72;101213.03;683573;28;46301;-68
2022/05/17 00:17:03;;;;;;;582.92;526.45;;;;;;;21.65;32.60;101212.22;684835;28;44375;-68
2022/05/17 00:17:25;;;;;;;585.78;529.28;;;;;;;21.66;32.75;101211.16;682979;28;67988;-68
2022/05/17 00:17:47;;;;;;;579.50;523.15;;;;;;;21.65;32.85;101206.72;684517;28;45319;-68
2022/05/17 00:18:10;;;;;;;580.28;524.03;;;;;;;21.66;32.65;101204.81;685479;28;22463;-68
2022/05/17 00:18:33;;;;;;;576.15;519.90;;;;;;;21.67;32.87;101210.06;682873;28;91184;-68
2022/05/17 00:18:55;;;;;;;570.20;514.05;;;;;;;21.68;32.58;101206.25;683188;28;69443;-68
2022/05/17 00:19:19;;;;;;;567.50;511.50;;;;;;;21.67;32.79;101207.31;683966;28;45258;-69
2022/05/17 00:19:40;;;;;;;581.15;524.45;;;;;;;21.63;32.51;101192.38;682175;28;92007;-68
2022/05/17 00:20:02;;;;;;;574.80;518.42;;;;;;;21.66;32.56;101213.03;685443;28;23452;-68
2022/05/17 00:20:25;;;;;;;569.03;512.92;;;;;;;21.67;32.56;101204.56;684613;28;44449;-68
2022/05/17 00:20:46;;;;;;;579.67;523.22;;;;;;;21.67;32.69;101203.72;683423;28;69447;-68
2022/05/17 00:21:07;;;;;;;582.60;526.15;;;;;;;21.66;32.65;101197.41;685575;28;22397;-68
2022/05/17 00:21:28;;;;;;;577.95;521.47;;;;;;;21.66;32.67;101202.91;684016;28;22386;-68
2022/05/17 00:21:51;;;;;;;569.95;513.75;;;;;;;21.65;32.57;101203.16;685767;28;21515;-68
2022/05/17 00:22:12;;;;;;;571.90;515.70;;;;;;;21.65;32.78;101192.97;683494;28;70292;-68
2022/05/17 00:22:33;;;;;;;580.92;524.58;;;;;;;21.65;32.72;101201.22;685244;28;22449;-68
2022/05/17 00:22:54;;;;;;;578.78;522.53;;;;;;;21.65;32.56;101198.47;685292;28;22150;-68
2022/05/17 00:23:16;;;;;;;574.20;517.95;;;;;;;21.66;32.51;101204.81;685012;28;21550;-68
2022/05/17 00:23:38;;;;;;;584.72;528.10;;;;;;;21.66;32.51;101200.16;684386;28;21272;-68
2022/05/17 00:23:59;;;;;;;575.50;519.33;;;;;;;21.66;32.66;101200.16;684615;28;46297;-68
2022/05/17 00:24:21;;;;;;;577.38;521.08;;;;;;;21.66;32.83;101207.53;684725;28;44363;-68
2022/05/17 00:24:44;;;;;;;564.67;508.65;;;;;;;21.63;32.54;101194.28;684571;28;46534;-69
2022/05/17 00:25:06;;;;;;;560.22;504.40;;;;;;;21.63;32.60;101199.78;684671;28;44451;-69
2022/05/17 00:25:27;;;;;;;567.55;511.40;;;;;;;21.62;32.59;101201.69;684129;28;67488;-68
2022/05/17 00:25:49;;;;;;;562.47;506.55;;;;;;;21.59;32.61;101203.00;684997;28;21559;-68
2022/05/17 00:26:10;;;;;;;558.25;502.40;;;;;;;21.62;32.60;101203.63;684811;28;46183;-68
2022/05/17 00:26:34;;;;;;;562.05;505.95;;;;;;;21.62;32.59;101201.69;684932;28;21518;-68
2022/05/17 00:26:56;;;;;;;567.75;511.65;;;;;;;21.56;32.80;101199.91;683149;28;92371;-68
2022/05/17 00:27:17;;;;;;;558.70;502.83;;;;;;;21.60;32.66;101203.88;684325;28;46426;-68
2022/05/17 00:27:38;;;;;;;570.58;514.40;;;;;;;21.63;32.55;101208.03;687856;28;21528;-68
2022/05/17 00:27:59;;;;;;;563.75;507.75;;;;;;;21.62;32.58;101198.13;687407;28;44376;-68
2022/05/17 00:28:22;;;;;;;565.13;509.02;;;;;;;21.60;32.44;101198.38;685146;28;22404;-68
2022/05/17 00:28:43;;;;;;;558.22;502.23;;;;;;;21.63;32.84;101205.28;684985;28;44232;-68
2022/05/17 00:29:04;;;;;;;560.88;504.98;;;;;;;21.63;32.65;101205.28;685190;28;23463;-68
2022/05/17 00:29:25;;;;;;;560.85;504.90;;;;;;;21.63;32.55;101202.53;684788;28;46239;-69
2022/05/17 00:29:47;;;;;;;577.17;520.58;;;;;;;21.63;32.51;101202.53;684836;28;21528;-68
2022/05/17 00:30:10;;;;;;;561.67;505.55;;;;;;;21.58;32.64;101200.50;684727;28;46358;-68
2022/05/17 00:30:31;;;;;;;555.15;499.17;;;;;;;21.62;32.53;101200.88;684475;28;44306;-69
2022/05/17 00:30:53;;;;;;;561.78;505.73;;;;;;;21.53;32.55;101195.72;684882;28;44128;-68
2022/05/17 00:31:15;;;;;;;563.80;507.60;;;;;;;21.59;32.68;101207.69;684976;28;44369;-68
2022/05/17 00:31:36;;;;;;;560.90;504.85;;;;;;;21.54;32.59;101205.66;686133;28;43373;-68
2022/05/17 00:31:58;;;;;;;565.67;509.60;;;;;;;21.56;32.84;101208.16;687684;28;23387;-68
2022/05/17 00:32:20;;;;;;;568.38;512.28;;;;;;;21.57;32.58;101209.84;687478;28;23434;-68
2022/05/17 00:32:41;;;;;;;572.88;516.60;;;;;;;21.55;32.61;101212.81;687215;28;46328;-69
2022/05/17 00:33:02;;;;;;;571.50;515.33;;;;;;;21.55;32.46;101210.06;687181;28;46373;-68
2022/05/17 00:33:23;;;;;;;561.92;505.95;;;;;;;21.55;32.64;101209.22;685361;28;21894;-68
2022/05/17 00:33:46;;;;;;;561.70;505.70;;;;;;;21.53;32.74;101203.13;685208;28;20853;-68
2022/05/17 00:34:07;;;;;;;558.88;502.80;;;;;;;21.54;32.80;101204.81;684431;28;46230;-69
2022/05/17 00:34:29;;;;;;;569.47;513.28;;;;;;;21.50;32.72;101204.44;684573;28;46688;-68
2022/05/17 00:34:50;;;;;;;563.83;507.83;;;;;;;21.55;32.84;101211.97;685256;28;22515;-68
2022/05/17 00:35:11;;;;;;;568.40;512.22;;;;;;;21.53;32.98;101203.97;685637;28;22431;-69
2022/05/17 00:35:33;;;;;;;568.83;512.63;;;;;;;21.54;32.96;101205.66;687701;28;24505;-69
2022/05/17 00:35:54;;;;;;;569.55;513.20;;;;;;;21.53;33.04;101208.63;686617;28;44326;-68
2022/05/17 00:36:15;;;;;;;572.88;516.53;;;;;;;21.51;32.90;101203.38;686539;28;45067;-69
2022/05/17 00:36:37;;;;;;;570.83;514.42;;;;;;;21.48;33.17;101200.25;687541;28;14218;-68
2022/05/17 00:36:59;;;;;;;570.88;514.70;;;;;;;21.51;33.21;101203.38;687687;28;23253;-69
2022/05/17 00:37:21;;;;;;;571.88;515.40;;;;;;;21.48;33.29;101198.31;685753;28;70308;-69
2022/05/17 00:37:42;;;;;;;560.67;504.58;;;;;;;21.50;33.41;101204.44;688013;28;22414;-68
2022/05/17 00:38:03;;;;;;;570.88;514.67;;;;;;;21.49;33.64;101205.53;687111;28;23396;-69
2022/05/17 00:38:24;;;;;;;565.88;509.77;;;;;;;21.47;33.55;101199.38;686600;28;44127;-68
2022/05/17 00:38:46;;;;;;;563.65;507.48;;;;;;;21.46;33.88;101197.72;684643;28;22537;-68
2022/05/17 00:39:08;;;;;;;562.85;506.75;;;;;;;21.47;33.76;101204.06;684699;28;46296;-69
2022/05/17 00:39:29;;;;;;;565.20;509.13;;;;;;;21.43;33.94;101198.22;685185;28;22214;-68
2022/05/17 00:39:51;;;;;;;557.83;501.73;;;;;;;21.42;33.90;101197.34;685412;28;24359;-68
2022/05/17 00:40:14;;;;;;;557.83;501.92;;;;;;;21.44;34.05;101205.34;683196;28;69371;-69
2022/05/17 00:40:36;;;;;;;566.88;510.70;;;;;;;21.41;34.03;101201.19;684393;28;44385;-68
2022/05/17 00:40:57;;;;;;;564.47;508.35;;;;;;;21.42;34.26;101199.28;684723;28;46400;-68
2022/05/17 00:41:18;;;;;;;561.05;505.05;;;;;;;21.41;34.21;101201.19;685441;28;21524;-69
2022/05/17 00:41:39;;;;;;;554.22;498.25;;;;;;;21.39;34.04;101199.75;684739;28;23517;-68
2022/05/17 00:42:01;;;;;;;546.00;490.25;;;;;;;21.39;34.14;101199.75;685156;28;15620;-68
2022/05/17 00:42:22;;;;;;;562.78;506.75;;;;;;;21.34;34.15;101191.41;684126;28;45611;-68
2022/05/17 00:42:43;;;;;;;564.08;507.98;;;;;;;21.38;34.39;101198.94;685592;28;23511;-68
2022/05/17 00:43:05;;;;;;;560.78;504.92;;;;;;;21.38;34.50;101192.59;685661;28;22483;-68
2022/05/17 00:43:30;;;;;;;566.67;510.58;;;;;;;21.39;34.44;101199.75;681397;28;66742;-68
2022/05/17 00:44:43;;;;;;;563.40;507.27;;;;;;;21.37;34.56;101183.50;678466;28;137525;-69
2022/05/17 00:45:07;;;;;;;557.88;501.92;;;;;;;21.40;34.67;101193.19;681009;28;137727;-68
2022/05/17 00:45:29;;;;;;;543.55;487.95;;;;;;;21.35;34.64;101185.66;682301;28;92250;-68
2022/05/17 00:45:50;;;;;;;551.30;495.50;;;;;;;21.41;34.50;101200.34;684862;28;46254;-68
2022/05/17 00:46:11;;;;;;;553.92;498.23;;;;;;;21.42;34.42;101193.78;685605;28;21519;-68
2022/05/17 00:46:42;;;;;;;555.72;499.83;;;;;;;21.43;34.22;101195.47;684786;28;23465;-68
2022/05/17 00:47:09;;;;;;;546.50;490.90;;;;;;;21.42;34.47;101194.59;681292;28;137737;-69
2022/05/17 00:47:32;;;;;;;548.38;492.63;;;;;;;21.43;34.42;101190.78;681807;28;136228;-69
2022/05/17 00:47:58;;;;;;;559.58;503.58;;;;;;;21.39;34.36;101188.75;683946;28;69304;-68
2022/05/17 00:48:19;;;;;;;552.30;496.42;;;;;;;21.45;34.40;101193.31;680896;28;137975;-68
2022/05/17 00:48:41;;;;;;;554.08;498.05;;;;;;;21.45;34.41;101195.22;684694;28;22517;-68
2022/05/17 00:49:03;;;;;;;557.55;501.58;;;;;;;21.43;34.42;101193.53;683827;28;69473;-69
2022/05/17 00:49:27;;;;;;;563.10;507.13;;;;;;;21.44;34.49;101194.38;684577;28;44385;-68
2022/05/17 00:49:51;;;;;;;553.78;497.77;;;;;;;21.43;34.33;101192.72;683051;28;92327;-69
2022/05/17 00:50:18;;;;;;;547.70;491.92;;;;;;;21.43;34.66;101195.47;682480;28;92208;-68
2022/05/17 00:50:42;;;;;;;557.28;501.27;;;;;;;21.42;34.63;101197.34;681167;28;137554;-69
2022/05/17 00:51:03;;;;;;;560.15;504.17;;;;;;;21.35;34.55;101174.66;683383;28;92269;-68
2022/05/17 00:51:28;;;;;;;552.55;496.58;;;;;;;21.42;34.60;101196.53;684668;28;23734;-68
2022/05/17 00:51:49;;;;;;;557.03;501.02;;;;;;;21.42;34.46;101191.03;682293;28;115118;-68
2022/05/17 00:52:12;;;;;;;559.70;503.70;;;;;;;21.42;34.35;101194.59;685559;28;21257;-69
2022/05/17 00:52:38;;;;;;;555.70;499.75;;;;;;;21.43;34.48;101190.78;684141;28;69411;-68
2022/05/17 00:53:03;;;;;;;556.15;500.25;;;;;;;21.41;34.35;101187.47;681494;28;136100;-68
2022/05/17 00:53:27;;;;;;;556.53;500.65;;;;;;;21.45;34.48;101198.81;682600;28;116445;-68
2022/05/17 00:53:50;;;;;;;548.53;492.83;;;;;;;21.43;34.44;101192.72;682963;28;92222;-68
2022/05/17 00:54:14;;;;;;;552.70;497.00;;;;;;;21.43;34.17;101200.97;683934;28;69717;-68
2022/05/17 00:54:37;;;;;;;553.45;497.73;;;;;;;21.42;34.37;101191.03;683175;28;91795;-68
2022/05/17 00:55:04;;;;;;;557.08;501.20;;;;;;;21.41;34.23;101198.44;683141;28;69287;-68
2022/05/17 00:55:28;;;;;;;559.40;503.40;;;;;;;21.41;34.43;101197.59;681307;28;138296;-68
2022/05/17 00:55:53;;;;;;;561.00;505.02;;;;;;;21.38;34.46;101192.59;683066;28;92315;-69
2022/05/17 00:56:17;;;;;;;555.58;499.50;;;;;;;21.39;34.44;101194.25;682279;28;114923;-68
2022/05/17 00:56:44;;;;;;;554.83;498.60;;;;;;;21.37;34.67;101191.75;682090;28;92283;-68
2022/05/17 00:57:08;;;;;;;557.80;501.77;;;;;;;21.33;34.30;101187.81;681389;28;137346;-68
2022/05/17 00:57:34;;;;;;;549.78;493.92;;;;;;;21.37;34.54;101197.25;683151;28;90457;-68
2022/05/17 00:57:58;;;;;;;553.22;497.33;;;;;;;21.36;34.46;101200.22;681371;28;138020;-68
2022/05/17 00:58:22;;;;;;;547.78;491.90;;;;;;;21.35;34.57;101201.31;682316;28;115049;-69
2022/05/17 00:58:45;;;;;;;551.47;495.45;;;;;;;21.37;34.97;101201.91;682496;28;90192;-68
2022/05/17 00:59:09;;;;;;;555.53;499.55;;;;;;;21.36;34.70;101194.72;684056;28;69407;-69
2022/05/17 00:59:30;;;;;;;560.53;504.40;;;;;;;21.35;34.76;101202.16;683030;28;92115;-68
2022/05/17 00:59:52;;;;;;;555.03;498.92;;;;;;;21.32;34.58;101196.31;685475;28;24339;-69
2022/05/17 01:00:19;;;;;;;545.97;490.33;;;;;;;21.32;34.76;101193.56;684236;28;44343;-68
2022/05/17 01:00:45;;;;;;;550.63;494.80;;;;;;;21.31;34.87;101194.63;681773;28;138122;-68
2022/05/17 01:01:10;;;;;;;553.53;497.63;;;;;;;21.34;34.87;101194.13;681606;28;138936;-68
2022/05/17 01:01:31;;;;;;;562.30;506.10;;;;;;;21.29;34.73;101202.25;682561;28;93120;-68
2022/05/17 01:01:52;;;;;;;553.03;497.13;;;;;;;21.33;34.62;101200.69;684314;28;46321;-68
2022/05/17 01:02:13;;;;;;;557.17;501.33;;;;;;;21.33;34.92;101206.19;685381;28;23211;-68
2022/05/17 01:02:36;;;;;;;551.17;495.40;;;;;;;21.30;34.77;101193.78;685524;28;21505;-69
2022/05/17 01:02:59;;;;;;;542.58;486.95;;;;;;;21.27;34.83;101188.78;684569;28;44384;-68
2022/05/17 01:03:21;;;;;;;546.53;490.75;;;;;;;21.32;35.00;101204.53;683040;28;92287;-68
2022/05/17 01:03:47;;;;;;;547.65;491.90;;;;;;;21.30;34.81;101199.28;684430;28;46392;-68
2022/05/17 01:04:11;;;;;;;548.13;492.42;;;;;;;21.29;34.88;101197.59;682191;28;115182;-68
2022/05/17 01:04:33;;;;;;;553.00;497.10;;;;;;;21.32;34.93;101201.78;683258;28;92230;-68
2022/05/17 01:04:54;;;;;;;549.03;493.15;;;;;;;21.31;35.16;101198.19;684664;28;45315;-69
2022/05/17 01:05:16;;;;;;;552.92;496.98;;;;;;;21.33;35.47;101197.94;684114;28;46544;-68
2022/05/17 01:05:40;;;;;;;556.78;500.77;;;;;;;21.31;35.71;101200.09;687612;28;21998;-68
2022/05/17 01:06:03;;;;;;;558.20;502.25;;;;;;;21.33;35.70;101192.47;685200;28;92332;-68
2022/05/17 01:06:26;;;;;;;552.75;496.85;;;;;;;21.33;35.58;101198.81;685464;28;68361;-68
2022/05/17 01:06:53;;;;;;;547.58;491.85;;;;;;;21.31;35.80;101189.94;685533;28;90683;-68
2022/05/17 01:07:18;;;;;;;553.70;497.77;;;;;;;21.34;35.95;101199.63;683916;28;138485;-68
2022/05/17 01:07:42;;;;;;;551.38;495.60;;;;;;;21.33;35.88;101193.31;682727;28;115080;-68
2022/05/17 01:08:03;;;;;;;551.92;496.02;;;;;;;21.32;35.57;101199.88;683230;28;92220;-68
2022/05/17 01:08:25;;;;;;;552.72;496.73;;;;;;;21.33;35.80;101201.56;684847;28;22351;-68
2022/05/17 01:08:46;;;;;;;555.55;499.75;;;;;;;21.30;35.59;101191.03;684625;28;22365;-68
2022/05/17 01:09:08;;;;;;;556.22;500.40;;;;;;;21.30;35.70;101196.53;685227;28;21044;-69
2022/05/17 01:09:29;;;;;;;550.97;495.20;;;;;;;21.31;35.74;101194.63;684124;28;45190;-68
2022/05/17 01:09:50;;;;;;;557.15;500.92;;;;;;;21.30;35.83;101195.69;684768;28;21408;-68
2022/05/17 01:10:12;;;;;;;550.50;494.58;;;;;;;21.28;35.75;101200.59;685100;28;22454;-68
2022/05/17 01:10:35;;;;;;;558.05;502.00;;;;;;;21.22;35.73;101184.00;684893;28;46602;-69
2022/05/17 01:10:56;;;;;;;557.35;501.27;;;;;;;21.21;35.64;101193.28;684221;28;46415;-68
2022/05/17 01:11:17;;;;;;;550.58;494.77;;;;;;;21.19;35.87;101191.84;685427;28;22392;-68
2022/05/17 01:11:38;;;;;;;553.30;497.40;;;;;;;21.22;36.09;101192.22;684859;28;22185;-68
2022/05/17 01:11:59;;;;;;;560.40;504.42;;;;;;;21.20;36.15;101191.59;685320;28;22370;-68
2022/05/17 01:12:21;;;;;;;561.75;505.65;;;;;;;21.20;36.33;101193.53;684846;28;45246;-68
2022/05/17 01:12:43;;;;;;;560.42;504.27;;;;;;;21.18;36.40;101195.69;684858;28;45564;-68
2022/05/17 01:15:05;;;;;;;552.83;497.05;;;;;;;21.17;36.80;101200.31;681480;28;138338;-68
2022/05/17 01:15:26;;;;;;;550.95;495.15;;;;;;;21.15;36.90;101198.91;683250;28;70160;-68
2022/05/17 01:15:47;;;;;;;560.67;504.60;;;;;;;21.15;36.90;101199.72;685219;28;24306;-68
2022/05/17 01:16:08;;;;;;;554.92;499.10;;;;;;;21.15;36.71;101194.25;685252;28;22414;-68
2022/05/17 01:16:32;;;;;;;559.70;503.60;;;;;;;21.14;36.36;101191.72;683644;28;45227;-68
2022/05/17 01:16:53;;;;;;;555.28;499.38;;;;;;;21.14;36.63;101192.56;683400;28;70414;-68
2022/05/17 01:17:14;;;;;;;549.10;493.30;;;;;;;21.15;36.49;101196.16;687095;28;21510;-68
2022/05/17 01:17:37;;;;;;;557.08;501.10;;;;;;;21.15;36.46;101194.25;687668;28;23473;-68
2022/05/17 01:17:58;;;;;;;542.58;487.05;;;;;;;21.15;36.48;101188.75;686151;28;68310;-69
2022/05/17 01:18:20;;;;;;;555.47;499.73;;;;;;;21.15;36.61;101196.97;687707;28;23507;-68
2022/05/17 01:18:42;;;;;;;558.63;502.83;;;;;;;21.14;36.66;101192.56;686491;28;46440;-69
2022/05/17 01:19:06;;;;;;;554.85;499.05;;;;;;;21.17;36.64;101199.50;686653;28;45265;-69
2022/05/17 01:19:27;;;;;;;553.05;497.27;;;;;;;21.16;36.31;101195.06;683025;28;92312;-68
2022/05/17 01:19:49;;;;;;;560.13;504.08;;;;;;;21.15;36.42;101199.72;684759;28;22402;-69
2022/05/17 01:20:13;;;;;;;556.53;500.63;;;;;;;21.15;36.48;101190.66;684102;28;45234;-69
2022/05/17 01:20:34;;;;;;;552.90;497.10;;;;;;;21.13;36.70;101193.66;683142;28;92239;-69
2022/05/17 01:20:57;;;;;;;555.42;499.67;;;;;;;21.11;36.61;101190.28;685539;28;21531;-68
2022/05/17 01:21:19;;;;;;;549.30;493.70;;;;;;;21.17;36.59;101192.06;683973;28;67249;-68
2022/05/17 01:21:41;;;;;;;554.60;498.80;;;;;;;21.16;36.41;101193.16;682645;28;70078;-68
2022/05/17 01:22:02;;;;;;;544.90;489.40;;;;;;;21.14;36.28;101192.56;684749;28;22395;-68
2022/05/17 01:22:23;;;;;;;556.10;500.30;;;;;;;21.10;36.41;101185.88;685177;28;23067;-68
2022/05/17 01:22:45;;;;;;;563.73;507.73;;;;;;;21.14;36.49;101191.72;685740;28;21230;-69
2022/05/17 01:23:06;;;;;;;554.95;499.13;;;;;;;21.15;36.57;101190.66;684830;28;45249;-68
2022/05/17 01:23:27;;;;;;;544.03;488.50;;;;;;;21.13;36.51;101187.28;684860;28;45324;-68
2022/05/17 01:23:49;;;;;;;552.08;496.27;;;;;;;21.15;36.57;101194.25;685059;28;22357;-68
2022/05/17 01:24:10;;;;;;;549.05;493.35;;;;;;;21.15;36.41;101191.50;685570;28;23454;-68
2022/05/17 01:24:32;;;;;;;550.40;494.70;;;;;;;21.16;36.54;101193.16;685444;28;23464;-68
2022/05/17 01:24:53;;;;;;;547.28;491.67;;;;;;;21.14;36.64;101189.81;684676;28;46218;-68
2022/05/17 01:25:14;;;;;;;548.47;492.92;;;;;;;21.11;36.63;101192.19;685087;28;21281;-68
2022/05/17 01:25:35;;;;;;;553.78;497.88;;;;;;;21.08;36.51;101185.25;685115;28;24513;-68
2022/05/17 01:25:58;;;;;;;539.75;484.17;;;;;;;21.12;36.63;101193.88;684874;28;22387;-68
2022/05/17 01:26:21;;;;;;;547.78;492.17;;;;;;;21.13;36.61;101190.03;683526;28;69406;-68
2022/05/17 01:26:44;;;;;;;542.83;487.25;;;;;;;21.14;36.65;101192.56;682679;28;69756;-67
2022/05/17 01:27:10;;;;;;;541.03;485.52;;;;;;;21.13;36.70;101190.91;685656;28;1798;-67
2022/05/17 01:27:35;;;;;;;548.83;493.02;;;;;;;21.11;36.84;101184.78;682451;28;138042;-67
2022/05/17 01:28:01;;;;;;;549.65;493.85;;;;;;;21.14;36.46;101191.72;684691;28;115884;-67
2022/05/17 01:28:25;;;;;;;545.53;490.00;;;;;;;21.06;36.55;101177.28;684191;28;137280;-67
2022/05/17 01:28:46;;;;;;;550.72;495.02;;;;;;;21.11;36.60;101187.53;682945;28;92859;-67
2022/05/17 01:29:09;;;;;;;547.83;492.13;;;;;;;21.09;36.47;101195.19;685046;28;46385;-67
2022/05/17 01:29:37;;;;;;;545.35;489.67;;;;;;;21.08;36.83;101190.75;683477;28;69429;-67
2022/05/17 01:29:58;;;;;;;552.70;496.70;;;;;;;21.08;36.79;101196.25;681511;28;137922;-67
2022/05/17 01:30:22;;;;;;;549.08;493.38;;;;;;;21.08;36.62;101198.16;685208;28;22402;-67
2022/05/17 01:30:44;;;;;;;552.78;496.95;;;;;;;21.06;36.57;101192.91;682975;28;92272;-68
2022/05/17 01:31:05;;;;;;;552.90;497.08;;;;;;;21.05;36.53;101194.00;684206;28;44383;-69
2022/05/17 01:31:27;;;;;;;553.90;498.00;;;;;;;21.05;36.67;101194.00;684356;28;22348;-67
2022/05/17 01:31:48;;;;;;;559.75;503.75;;;;;;;21.05;36.82;101200.31;684532;28;45196;-67
2022/05/17 01:32:11;;;;;;;553.42;497.58;;;;;;;21.05;36.72;101194.81;684979;28;21357;-69
2022/05/17 01:32:33;;;;;;;548.95;493.23;;;;;;;21.05;36.65;101189.34;683898;28;69593;-67
2022/05/17 01:32:54;;;;;;;539.05;483.65;;;;;;;21.05;36.89;101194.00;684750;28;46361;-70
2022/05/17 01:33:17;;;;;;;545.92;490.15;;;;;;;21.05;36.90;101192.06;685689;28;21543;-70
2022/05/17 01:33:40;;;;;;;544.85;489.20;;;;;;;21.04;37.03;101201.38;683577;28;69261;-69
2022/05/17 01:34:01;;;;;;;549.47;493.80;;;;;;;21.04;36.97;101186.81;683887;28;69272;-69
2022/05/17 01:34:22;;;;;;;559.42;503.48;;;;;;;21.05;36.95;101199.50;685410;28;22407;-69
2022/05/17 01:34:44;;;;;;;559.72;503.75;;;;;;;21.02;37.15;101187.06;685671;28;22183;-69
2022/05/17 01:35:06;;;;;;;548.25;492.50;;;;;;;21.04;37.13;101193.13;684093;28;46333;-69
2022/05/17 01:35:27;;;;;;;548.90;493.02;;;;;;;21.03;36.96;101193.38;684191;28;44362;-69
2022/05/17 01:35:48;;;;;;;545.72;490.02;;;;;;;20.98;36.99;101185.84;686306;28;1713;-69
2022/05/17 01:36:14;;;;;;;559.28;503.20;;;;;;;21.03;37.31;101199.72;685545;28;23429;-69
2022/05/17 01:36:36;;;;;;;548.78;492.85;;;;;;;21.03;37.04;101193.38;680469;28;136197;-69
2022/05/17 01:36:57;;;;;;;557.58;501.48;;;;;;;21.03;36.95;101191.50;684116;28;46291;-69
2022/05/17 01:37:19;;;;;;;555.25;499.25;;;;;;;21.02;37.23;101197.22;684819;28;21542;-69
2022/05/17 01:37:40;;;;;;;554.00;497.87;;;;;;;21.00;37.03;101199.34;684533;28;46296;-69
2022/05/17 01:38:03;;;;;;;546.35;490.60;;;;;;;20.99;36.85;101198.50;684903;28;46655;-69
2022/05/17 01:38:27;;;;;;;552.55;496.65;;;;;;;20.94;37.08;101190.16;683586;28;68115;-69
2022/05/17 01:38:52;;;;;;;547.15;491.05;;;;;;;20.97;37.03;101197.06;682443;28;90745;-70
2022/05/17 01:39:13;;;;;;;553.83;497.63;;;;;;;20.97;37.34;101197.06;682483;28;115082;-69
2022/05/17 01:39:36;;;;;;;550.47;494.40;;;;;;;20.96;37.36;101188.00;684715;28;21509;-69
2022/05/17 01:39:57;;;;;;;552.60;496.45;;;;;;;20.96;37.11;101196.22;684318;28;46394;-69
2022/05/17 01:40:18;;;;;;;551.13;495.33;;;;;;;20.97;37.25;101194.31;684671;28;22391;-69
2022/05/17 01:40:40;;;;;;;548.00;492.15;;;;;;;20.94;37.33;101189.28;684620;28;44349;-69
2022/05/17 01:41:01;;;;;;;547.45;491.75;;;;;;;20.96;37.45;101192.66;684970;28;44388;-69
2022/05/17 01:41:25;;;;;;;537.13;481.63;;;;;;;20.97;37.19;101195.16;685488;28;22474;-69
2022/05/17 01:41:46;;;;;;;549.35;493.35;;;;;;;20.93;37.36;101190.38;682478;28;89145;-69
2022/05/17 01:42:10;;;;;;;549.25;493.45;;;;;;;20.94;37.13;101186.53;685266;28;21072;-69
2022/05/17 01:42:32;;;;;;;547.92;491.98;;;;;;;20.97;37.16;101199.81;681751;28;114385;-69
2022/05/17 01:42:53;;;;;;;539.95;484.23;;;;;;;20.97;37.35;101199.81;684807;28;45882;-69
2022/05/17 01:43:14;;;;;;;527.47;472.20;;;;;;;20.94;37.31;101200.28;685130;28;22398;-69